If you wish to contribute or participate in the discussions about articles you are invited to join SKYbrary as a registered user

 Actions

Gwalior Airport

From SKYbrary Wiki

VIGR
Airport
ICAO: VIGR
Summary
Name Gwalior Airport
Region Asia and Pacific
Territory India IN.gif
Location Gwalior, Madhya Pradesh
Serving
Coordinates 26° 17' 52.21" N, 78° 13' 36.47" E
Runways
Designator Length Width Surface ROPS
6/24 2743 m8,999.344 ft
46 m150.919 ft
CON /


METAR
Observation VIGR 220330Z 32010KT 2000 BR FEW100 SCT250 19/17 Q1017 NOSIG
Station Gwalior
Date/Time 22 February 2019 03:30:00
Wind direction 320°
Wind speed 10 kts
Lowest cloud amount few clouds
Temperature 19°C
Dew point 17°C
Humidity 88%
QNH 1017 hPa
Weather condition n/a

BS
Tag(s) Bird Strike
LOS
Tag(s) Parallel Runway Operation
WX
Tag(s) Cumulonimbus

Gwalior Airport

ICAO: VIGR IATA: GWI

Description

Gwalior Airport is a civil enclave airport at the Maharajpur Air Force Station located 10 km5.4 nm
10,000 m
32,808.399 ft
north-east of Gwalior, a city in the state of Madhya Pradesh, India.

Climatology

Humid “subtropical” climate (Köppen climate classification Cwa) - characterized by hot, humid summers and cool winters. Almost all of the annual precipitation falls during monsoon season between June and October.

Maps

Terrain

Loading map...

Airport Layout

Loading map...



Accidents & Serious Incidents at or in vicinity of VIGR

None on SKYbrary